Time;durP1;ratioP1;P1;durP2;ratioP2;P2;SDS_P1;SDS_P2;PMS_P1;PMS_P2;Temp;Humidity;BMP_temperature;BMP_pressure;BME280_temperature;BME280_humidity;BME280_pressure;Samples;Min_cycle;Max_cycle;Signal;HPM_P1;HPM_P2
2022/12/11 00:04:25;;;;;;;;;;;;;;;;;;10456674;28;19932;-66
2022/12/11 00:09:27;;;;;;;;;;;;;;;;;;10455350;28;20341;-66
2022/12/11 00:14:30;;;;;;;;;;;;;;;;;;10462497;28;19932;-66
2022/12/11 00:19:32;;;;;;;;;;;;;;;;;;10464139;28;19925;-66
2022/12/11 00:24:34;;;;;;;;;;;;;;;;;;10462428;28;20379;-66
2022/12/11 00:29:37;;;;;;;;;;;;;;;;;;10463700;28;20430;-66
2022/12/11 00:34:39;;;;;;;;;;;;;;;;;;10445542;28;19925;-66
2022/12/11 00:39:41;;;;;;;;;;;;;;;;;;10444095;28;19932;-66
2022/12/11 00:44:43;;;;;;;;;;;;;;;;;;10462668;28;19924;-66
2022/12/11 00:49:45;;;;;;;;;;;;;;;;;;10462279;28;19975;-67
2022/12/11 00:54:50;;;;;;;;;;;;;;;;;;10462331;28;19924;-66
2022/12/11 00:59:52;;;;;;;;;;;;;;;;;;10461979;28;20292;-66
2022/12/11 01:04:54;;;;;;;;;;;;;;;;;;10461897;28;19924;-66
2022/12/11 01:15:17;;;;;;;;;;;;;;;;;;10462096;28;19924;-66
2022/12/11 01:20:19;;;;;;;;;;;;;;;;;;10460945;28;19928;-66
2022/12/11 01:25:21;;;;;;;;;;;;;;;;;;10459280;28;20327;-65
2022/12/11 01:30:23;;;;;;;;;;;;;;;;;;10461441;28;19932;-65
2022/12/11 01:35:25;;;;;;;;;;;;;;;;;;10460763;28;19928;-65
2022/12/11 01:40:28;;;;;;;;;;;;;;;;;;10460215;28;19928;-65
2022/12/11 01:45:30;;;;;;;;;;;;;;;;;;10459310;28;19925;-65
2022/12/11 01:50:33;;;;;;;;;;;;;;;;;;10468341;22;19924;-59
2022/12/11 01:55:35;;;;;;;;;;;;;;;;;;10458475;28;19925;-59
2022/12/11 02:00:37;;;;;;;;;;;;;;;;;;10459641;28;20338;-59
2022/12/11 02:05:39;;;;;;;;;;;;;;;;;;10459446;28;19925;-59
2022/12/11 02:10:41;;;;;;;;;;;;;;;;;;10459272;28;19924;-59
2022/12/11 02:15:43;;;;;;;;;;;;;;;;;;10459667;28;19925;-59
2022/12/11 02:20:45;;;;;;;;;;;;;;;;;;10457771;28;20287;-59
2022/12/11 02:25:47;;;;;;;;;;;;;;;;;;10440273;28;19933;-59
2022/12/11 02:30:49;;;;;;;;;;;;;;;;;;10458508;28;20360;-59
2022/12/11 02:35:51;;;;;;;;;;;;;;;;;;10458723;28;19929;-60
2022/12/11 02:40:54;;;;;;;;;;;;;;;;;;10457650;28;19924;-59
2022/12/11 02:45:56;;;;;;;;;;;;;;;;;;10457906;28;20380;-60
2022/12/11 02:50:58;;;;;;;;;;;;;;;;;;10456037;28;20299;-59
2022/12/11 02:56:00;;;;;;;;;;;;;;;;;;10458255;28;19924;-59
2022/12/11 03:01:02;;;;;;;;;;;;;;;;;;10456985;28;19978;-59
2022/12/11 03:06:04;;;;;;;;;;;;;;;;;;10457309;28;19932;-59
2022/12/11 03:11:06;;;;;;;;;;;;;;;;;;10457203;28;19925;-59
2022/12/11 03:16:08;;;;;;;;;;;;;;;;;;10456900;28;19925;-59
2022/12/11 03:21:10;;;;;;;;;;;;;;;;;;10455895;28;20372;-59
2022/12/11 03:26:12;;;;;;;;;;;;;;;;;;10457457;28;19925;-59
2022/12/11 03:31:14;;;;;;;;;;;;;;;;;;10455115;28;20393;-59
2022/12/11 03:36:17;;;;;;;;;;;;;;;;;;10457230;28;19928;-59
2022/12/11 03:41:19;;;;;;;;;;;;;;;;;;10456401;28;19925;-59
2022/12/11 03:46:21;;;;;;;;;;;;;;;;;;10458907;28;19925;-59
2022/12/11 03:51:23;;;;;;;;;;;;;;;;;;10464039;28;19960;-59
2022/12/11 03:56:25;;;;;;;;;;;;;;;;;;10464564;28;20260;-59
2022/12/11 04:01:27;;;;;;;;;;;;;;;;;;10464347;28;20272;-59
2022/12/11 04:06:29;;;;;;;;;;;;;;;;;;10463713;28;19924;-60
2022/12/11 04:11:34;;;;;;;;;;;;;;;;;;10464632;28;19955;-59
2022/12/11 04:16:36;;;;;;;;;;;;;;;;;;10463786;28;19929;-59
2022/12/11 04:26:59;;;;;;;;;;;;;;;;;;10461974;28;19925;-59
2022/12/11 04:32:01;;;;;;;;;;;;;;;;;;10463763;28;19971;-59
2022/12/11 04:37:03;;;;;;;;;;;;;;;;;;10463020;28;20269;-59
2022/12/11 04:42:05;;;;;;;;;;;;;;;;;;10461776;28;19925;-59
2022/12/11 04:47:07;;;;;;;;;;;;;;;;;;10462965;28;20398;-60
2022/12/11 04:52:09;;;;;;;;;;;;;;;;;;10461637;28;19924;-59
2022/12/11 04:57:11;;;;;;;;;;;;;;;;;;10444544;28;19925;-59
2022/12/11 05:02:14;;;;;;;;;;;;;;;;;;10460995;28;20372;-59
2022/12/11 05:07:16;;;;;;;;;;;;;;;;;;10461905;28;19947;-59
2022/12/11 05:12:18;;;;;;;;;;;;;;;;;;10461625;28;19925;-59
2022/12/11 05:17:20;;;;;;;;;;;;;;;;;;10461164;28;19932;-59
2022/12/11 05:22:22;;;;;;;;;;;;;;;;;;10460660;28;20438;-59
2022/12/11 05:27:25;;;;;;;;;;;;;;;;;;10461630;28;19925;-59
2022/12/11 05:32:27;;;;;;;;;;;;;;;;;;10460920;28;20375;-59
2022/12/11 05:37:29;;;;;;;;;;;;;;;;;;10460333;28;19925;-59
2022/12/11 05:42:31;;;;;;;;;;;;;;;;;;10460184;28;19932;-59
2022/12/11 05:47:33;;;;;;;;;;;;;;;;;;10459435;28;20284;-59
2022/12/11 05:52:35;;;;;;;;;;;;;;;;;;10460535;28;19925;-59
2022/12/11 05:57:37;;;;;;;;;;;;;;;;;;10460540;28;19929;-59
2022/12/11 06:02:39;;;;;;;;;;;;;;;;;;10458137;28;19936;-59
2022/12/11 06:07:41;;;;;;;;;;;;;;;;;;10460117;28;19925;-59
2022/12/11 06:12:43;;;;;;;;;;;;;;;;;;10458785;28;20261;-59
2022/12/11 06:17:46;;;;;;;;;;;;;;;;;;10458754;28;19955;-59
2022/12/11 06:22:48;;;;;;;;;;;;;;;;;;10458885;28;19929;-59
2022/12/11 06:27:50;;;;;;;;;;;;;;;;;;10458629;28;19932;-59
2022/12/11 06:32:52;;;;;;;;;;;;;;;;;;10458153;28;19924;-59
2022/12/11 06:37:54;;;;;;;;;;;;;;;;;;10458887;28;19925;-59
2022/12/11 06:42:56;;;;;;;;;;;;;;;;;;10458577;28;20368;-59
2022/12/11 06:47:59;;;;;;;;;;;;;;;;;;10457351;28;19924;-59
2022/12/11 06:53:01;;;;;;;;;;;;;;;;;;10458448;28;19924;-59
2022/12/11 06:58:03;;;;;;;;;;;;;;;;;;10440523;28;19925;-59
2022/12/11 07:03:05;;;;;;;;;;;;;;;;;;10456072;28;20315;-59
2022/12/11 07:08:07;;;;;;;;;;;;;;;;;;10457555;28;19925;-59
2022/12/11 07:13:09;;;;;;;;;;;;;;;;;;10457766;28;19924;-60
2022/12/11 07:18:11;;;;;;;;;;;;;;;;;;10457626;28;19928;-59
2022/12/11 07:23:13;;;;;;;;;;;;;;;;;;10455055;28;19928;-59
2022/12/11 07:28:15;;;;;;;;;;;;;;;;;;10456954;28;20280;-59
2022/12/11 07:33:17;;;;;;;;;;;;;;;;;;10456326;28;19929;-59
2022/12/11 07:38:19;;;;;;;;;;;;;;;;;;10456633;28;19982;-59
2022/12/11 07:43:21;;;;;;;;;;;;;;;;;;10455493;28;19925;-59
2022/12/11 07:48:23;;;;;;;;;;;;;;;;;;10456628;28;19947;-60
2022/12/11 07:53:26;;;;;;;;;;;;;;;;;;10456882;28;19925;-59
2022/12/11 07:58:28;;;;;;;;;;;;;;;;;;10454217;28;19936;-59
2022/12/11 08:03:30;;;;;;;;;;;;;;;;;;10455924;28;19925;-59
2022/12/11 08:08:32;;;;;;;;;;;;;;;;;;10456044;28;20437;-59
2022/12/11 08:13:34;;;;;;;;;;;;;;;;;;10455692;28;19924;-59
2022/12/11 08:18:36;;;;;;;;;;;;;;;;;;10455877;28;19925;-59
2022/12/11 08:23:38;;;;;;;;;;;;;;;;;;10456343;28;19983;-59
2022/12/11 08:28:40;;;;;;;;;;;;;;;;;;10454876;28;20330;-59
2022/12/11 08:33:43;;;;;;;;;;;;;;;;;;10459985;28;19925;-59
2022/12/11 08:38:45;;;;;;;;;;;;;;;;;;10463031;28;19931;-59
2022/12/11 08:43:47;;;;;;;;;;;;;;;;;;10462048;28;19931;-60
2022/12/11 08:48:50;;;;;;;;;;;;;;;;;;10462550;28;19929;-59
2022/12/11 08:53:52;;;;;;;;;;;;;;;;;;10462846;28;19928;-61
2022/12/11 08:58:54;;;;;;;;;;;;;;;;;;10461452;28;19924;-59
2022/12/11 09:03:56;;;;;;;;;;;;;;;;;;10462483;28;19924;-59
2022/12/11 09:08:58;;;;;;;;;;;;;;;;;;10461990;28;19929;-59
2022/12/11 09:14:01;;;;;;;;;;;;;;;;;;10461445;28;19925;-59
2022/12/11 09:19:08;;;;;;;;;;;;;;;;;;10462199;28;19928;-59
2022/12/11 09:24:10;;;;;;;;;;;;;;;;;;10461839;28;19928;-59
2022/12/11 09:29:12;;;;;;;;;;;;;;;;;;10460850;28;19925;-59
2022/12/11 09:34:14;;;;;;;;;;;;;;;;;;10459721;28;20383;-59
2022/12/11 09:39:16;;;;;;;;;;;;;;;;;;10461328;28;19925;-59
2022/12/11 09:44:18;;;;;;;;;;;;;;;;;;10460141;28;19932;-59
2022/12/11 09:49:20;;;;;;;;;;;;;;;;;;10458779;28;20398;-59
2022/12/11 09:54:22;;;;;;;;;;;;;;;;;;10460129;28;19929;-59
2022/12/11 09:59:24;;;;;;;;;;;;;;;;;;10457850;28;19925;-59
2022/12/11 10:04:27;;;;;;;;;;;;;;;;;;10450298;28;19924;-60
2022/12/11 10:09:29;;;;;;;;;;;;;;;;;;10454624;28;20007;-60
2022/12/11 10:14:31;;;;;;;;;;;;;;;;;;10455951;28;19925;-60
2022/12/11 10:19:34;;;;;;;;;;;;;;;;;;10457523;28;19930;-60
2022/12/11 10:24:36;;;;;;;;;;;;;;;;;;10458497;28;19928;-60
2022/12/11 10:29:58;;;;;;;;;;;;;;;;;;10457517;28;20374;-60
2022/12/11 10:35:00;;;;;;;;;;;;;;;;;;10456280;28;20303;-60
2022/12/11 10:40:02;;;;;;;;;;;;;;;;;;10457386;28;19929;-60
2022/12/11 10:45:04;;;;;;;;;;;;;;;;;;10457465;28;20038;-60
2022/12/11 10:50:06;;;;;;;;;;;;;;;;;;10456437;28;20392;-60
2022/12/11 10:55:09;;;;;;;;;;;;;;;;;;10456909;28;19979;-60
2022/12/11 11:00:11;;;;;;;;;;;;;;;;;;10457510;28;19968;-60
2022/12/11 11:05:13;;;;;;;;;;;;;;;;;;10453859;28;19928;-61
2022/12/11 11:10:15;;;;;;;;;;;;;;;;;;10452878;28;20311;-60
2022/12/11 11:15:17;;;;;;;;;;;;;;;;;;10453336;28;19929;-60
2022/12/11 11:20:19;;;;;;;;;;;;;;;;;;10456562;28;19954;-60
2022/12/11 11:25:21;;;;;;;;;;;;;;;;;;10456846;28;20375;-60
2022/12/11 11:30:24;;;;;;;;;;;;;;;;;;10457636;28;19982;-60
2022/12/11 11:35:26;;;;;;;;;;;;;;;;;;10457334;28;19925;-61
2022/12/11 11:40:28;;;;;;;;;;;;;;;;;;10456610;28;19995;-60
2022/12/11 11:45:30;;;;;;;;;;;;;;;;;;10457132;28;19929;-60
2022/12/11 11:50:32;;;;;;;;;;;;;;;;;;10456836;28;19924;-61
2022/12/11 11:55:35;;;;;;;;;;;;;;;;;;10457079;28;19925;-60
2022/12/11 12:00:37;;;;;;;;;;;;;;;;;;10456307;28;19924;-60
2022/12/11 12:05:39;;;;;;;;;;;;;;;;;;10456122;28;20326;-60
2022/12/11 12:10:41;;;;;;;;;;;;;;;;;;10464430;28;19967;-60
2022/12/11 12:15:43;;;;;;;;;;;;;;;;;;10464637;28;19925;-60
2022/12/11 12:20:45;;;;;;;;;;;;;;;;;;10479210;28;19925;-60
2022/12/11 12:25:47;;;;;;;;;;;;;;;;;;10464667;28;19929;-60
2022/12/11 12:30:49;;;;;;;;;;;;;;;;;;10464538;28;19924;-61
2022/12/11 12:35:51;;;;;;;;;;;;;;;;;;10460888;28;20375;-61
2022/12/11 12:40:54;;;;;;;;;;;;;;;;;;10463558;28;19924;-61
2022/12/11 12:45:56;;;;;;;;;;;;;;;;;;10463330;28;19931;-60
2022/12/11 12:50:58;;;;;;;;;;;;;;;;;;10463236;28;19960;-61
2022/12/11 12:56:00;;;;;;;;;;;;;;;;;;10463013;28;19932;-61
2022/12/11 13:01:03;;;;;;;;;;;;;;;;;;10462262;28;19925;-61
2022/12/11 13:06:05;;;;;;;;;;;;;;;;;;10462647;28;19932;-61
2022/12/11 13:11:08;;;;;;;;;;;;;;;;;;10462626;28;19925;-61
2022/12/11 13:16:10;;;;;;;;;;;;;;;;;;10461624;28;20421;-61
2022/12/11 13:21:12;;;;;;;;;;;;;;;;;;10460724;28;19939;-61
2022/12/11 13:26:14;;;;;;;;;;;;;;;;;;10461177;28;19925;-60
2022/12/11 13:31:16;;;;;;;;;;;;;;;;;;10461724;28;19929;-61
2022/12/11 13:36:18;;;;;;;;;;;;;;;;;;10461505;28;19963;-61
2022/12/11 13:41:25;;;;;;;;;;;;;;;;;;10461257;28;19925;-60
2022/12/11 13:46:27;;;;;;;;;;;;;;;;;;10461046;28;19955;-61
2022/12/11 13:51:53;;;;;;;;;;;;;;;;;;10460741;28;19925;-60
2022/12/11 13:56:55;;;;;;;;;;;;;;;;;;10460054;28;19925;-60
2022/12/11 14:01:57;;;;;;;;;;;;;;;;;;10460388;28;19978;-60
2022/12/11 14:07:09;;;;;;;;;;;;;;;;;;10500147;28;19935;-60
2022/12/11 14:12:11;;;;;;;;;;;;;;;;;;10501440;28;19924;-60
2022/12/11 14:17:14;;;;;;;;;;;;;;;;;;10500582;28;19929;-60
2022/12/11 14:22:16;;;;;;;;;;;;;;;;;;10500872;28;19950;-61
2022/12/11 14:27:18;;;;;;;;;;;;;;;;;;10500790;28;19954;-61
2022/12/11 14:32:20;;;;;;;;;;;;;;;;;;10499657;28;19931;-61
2022/12/11 14:37:22;;;;;;;;;;;;;;;;;;10499777;28;20375;-60
2022/12/11 14:42:24;;;;;;;;;;;;;;;;;;10500648;28;19950;-60
2022/12/11 14:47:26;;;;;;;;;;;;;;;;;;10481666;28;19925;-61
2022/12/11 14:52:29;;;;;;;;;;;;;;;;;;10499264;28;19986;-61
2022/12/11 14:57:31;;;;;;;;;;;;;;;;;;10499293;28;19932;-61
2022/12/11 15:02:33;;;;;;;;;;;;;;;;;;10499307;28;19924;-60
2022/12/11 15:07:35;;;;;;;;;;;;;;;;;;10498628;28;19928;-60
2022/12/11 15:12:37;;;;;;;;;;;;;;;;;;10498568;28;20338;-60
2022/12/11 15:17:39;;;;;;;;;;;;;;;;;;10481130;28;19958;-61
2022/12/11 15:22:41;;;;;;;;;;;;;;;;;;10495668;28;19978;-60
2022/12/11 15:27:43;;;;;;;;;;;;;;;;;;10499042;28;19924;-60
2022/12/11 15:32:45;;;;;;;;;;;;;;;;;;10498930;28;19931;-60
2022/12/11 15:37:47;;;;;;;;;;;;;;;;;;10498666;28;20371;-60
2022/12/11 15:42:49;;;;;;;;;;;;;;;;;;10501376;28;19935;-60
2022/12/11 15:47:52;;;;;;;;;;;;;;;;;;10506502;28;19931;-60
2022/12/11 15:52:54;;;;;;;;;;;;;;;;;;10506987;28;19924;-61
2022/12/11 15:57:56;;;;;;;;;;;;;;;;;;10506172;28;19978;-60
2022/12/11 16:02:58;;;;;;;;;;;;;;;;;;10506438;28;19925;-61
2022/12/11 16:08:01;;;;;;;;;;;;;;;;;;10505597;28;19924;-60
2022/12/11 16:13:03;;;;;;;;;;;;;;;;;;10506099;28;20371;-61
2022/12/11 16:18:05;;;;;;;;;;;;;;;;;;10505053;28;19924;-60
2022/12/11 16:23:07;;;;;;;;;;;;;;;;;;10505086;28;19990;-60
2022/12/11 16:28:09;;;;;;;;;;;;;;;;;;10503721;28;19932;-60
2022/12/11 16:33:12;;;;;;;;;;;;;;;;;;10505296;28;19924;-60
2022/12/11 16:38:14;;;;;;;;;;;;;;;;;;10505009;28;19932;-60
2022/12/11 16:43:17;;;;;;;;;;;;;;;;;;10503917;28;19928;-61
2022/12/11 16:48:19;;;;;;;;;;;;;;;;;;10504792;28;19977;-60
2022/12/11 16:53:21;;;;;;;;;;;;;;;;;;10502802;28;19925;-60
2022/12/11 16:58:23;;;;;;;;;;;;;;;;;;10503851;28;20261;-60
2022/12/11 17:03:25;;;;;;;;;;;;;;;;;;10502523;28;19931;-60
2022/12/11 17:08:28;;;;;;;;;;;;;;;;;;10502834;28;19924;-60
2022/12/11 17:13:30;;;;;;;;;;;;;;;;;;10503777;28;19971;-60
2022/12/11 17:18:36;;;;;;;;;;;;;;;;;;10502419;28;20395;-61
2022/12/11 17:23:38;;;;;;;;;;;;;;;;;;10498738;28;19970;-61
2022/12/11 17:28:40;;;;;;;;;;;;;;;;;;10501268;28;20315;-60
2022/12/11 17:33:43;;;;;;;;;;;;;;;;;;10499243;28;19924;-61
2022/12/11 17:38:45;;;;;;;;;;;;;;;;;;10518351;28;19978;-61
2022/12/11 17:43:47;;;;;;;;;;;;;;;;;;10505608;28;19924;-60
2022/12/11 17:48:49;;;;;;;;;;;;;;;;;;10489656;28;19924;-61
2022/12/11 17:53:51;;;;;;;;;;;;;;;;;;10484648;28;19924;-60
2022/12/11 17:58:53;;;;;;;;;;;;;;;;;;10502102;28;19928;-60
2022/12/11 18:03:55;;;;;;;;;;;;;;;;;;10500367;28;19924;-60
2022/12/11 18:08:58;;;;;;;;;;;;;;;;;;10499751;28;19924;-60
2022/12/11 18:14:00;;;;;;;;;;;;;;;;;;10500758;28;20310;-60
2022/12/11 18:19:02;;;;;;;;;;;;;;;;;;10500438;28;19924;-60
2022/12/11 18:24:04;;;;;;;;;;;;;;;;;;10499015;28;20375;-60
2022/12/11 18:29:06;;;;;;;;;;;;;;;;;;10498757;28;19925;-61
2022/12/11 18:34:08;;;;;;;;;;;;;;;;;;10482365;28;19924;-60
2022/12/11 18:39:10;;;;;;;;;;;;;;;;;;10499089;28;20309;-60
2022/12/11 18:44:13;;;;;;;;;;;;;;;;;;10498128;28;20379;-61
2022/12/11 18:49:15;;;;;;;;;;;;;;;;;;10499090;28;19955;-60
2022/12/11 18:54:17;;;;;;;;;;;;;;;;;;10495867;28;20367;-60
2022/12/11 18:59:19;;;;;;;;;;;;;;;;;;10500441;28;19970;-60
2022/12/11 19:04:21;;;;;;;;;;;;;;;;;;10478711;28;19978;-61
2022/12/11 19:09:23;;;;;;;;;;;;;;;;;;10498713;28;19931;-61
2022/12/11 19:14:25;;;;;;;;;;;;;;;;;;10497887;28;19924;-60
2022/12/11 19:19:27;;;;;;;;;;;;;;;;;;10497379;28;19925;-61
2022/12/11 19:24:29;;;;;;;;;;;;;;;;;;10496555;28;19936;-61
2022/12/11 19:29:31;;;;;;;;;;;;;;;;;;10496851;28;19986;-61
2022/12/11 19:34:34;;;;;;;;;;;;;;;;;;10496599;28;20449;-61
2022/12/11 19:39:36;;;;;;;;;;;;;;;;;;10498841;28;19925;-61
2022/12/11 19:44:38;;;;;;;;;;;;;;;;;;10498726;28;19925;-60
2022/12/11 19:49:40;;;;;;;;;;;;;;;;;;10481326;28;19982;-61
2022/12/11 19:54:42;;;;;;;;;;;;;;;;;;10497221;28;20340;-60
2022/12/11 19:59:44;;;;;;;;;;;;;;;;;;10497139;28;19924;-60
2022/12/11 20:04:46;;;;;;;;;;;;;;;;;;10495474;28;20264;-60
2022/12/11 20:09:48;;;;;;;;;;;;;;;;;;10496618;28;19929;-61
2022/12/11 20:14:50;;;;;;;;;;;;;;;;;;10495907;28;20342;-61
2022/12/11 20:19:52;;;;;;;;;;;;;;;;;;10498063;28;19924;-61
2022/12/11 20:24:54;;;;;;;;;;;;;;;;;;10497130;28;19925;-60
2022/12/11 20:29:56;;;;;;;;;;;;;;;;;;10501952;28;19951;-61
2022/12/11 20:34:59;;;;;;;;;;;;;;;;;;10503936;28;19924;-61
2022/12/11 20:40:01;;;;;;;;;;;;;;;;;;10505174;28;19970;-61
2022/12/11 20:45:03;;;;;;;;;;;;;;;;;;10503567;28;19928;-60
2022/12/11 20:50:05;;;;;;;;;;;;;;;;;;10504767;28;19928;-61
2022/12/11 20:55:07;;;;;;;;;;;;;;;;;;10504075;28;19931;-61
2022/12/11 21:00:10;;;;;;;;;;;;;;;;;;10503423;28;19978;-60
2022/12/11 21:05:12;;;;;;;;;;;;;;;;;;10502522;28;19990;-61
2022/12/11 21:10:14;;;;;;;;;;;;;;;;;;10504060;28;19931;-60
2022/12/11 21:15:16;;;;;;;;;;;;;;;;;;10501723;28;19924;-61
2022/12/11 21:20:20;;;;;;;;;;;;;;;;;;10503651;28;19932;-60
2022/12/11 21:25:22;;;;;;;;;;;;;;;;;;10502227;28;19932;-60
2022/12/11 21:30:24;;;;;;;;;;;;;;;;;;10503446;28;19974;-60
2022/12/11 21:35:26;;;;;;;;;;;;;;;;;;10501691;28;19928;-60
2022/12/11 21:40:28;;;;;;;;;;;;;;;;;;10501045;28;19982;-61
2022/12/11 21:45:30;;;;;;;;;;;;;;;;;;10501975;28;19952;-61
2022/12/11 21:50:52;;;;;;;;;;;;;;;;;;10501879;28;20339;-61
2022/12/11 21:55:54;;;;;;;;;;;;;;;;;;10501401;28;19931;-60
2022/12/11 22:00:56;;;;;;;;;;;;;;;;;;10501357;28;19970;-61
2022/12/11 22:05:59;;;;;;;;;;;;;;;;;;10497736;28;20303;-61
2022/12/11 22:11:01;;;;;;;;;;;;;;;;;;10500482;28;19925;-61
2022/12/11 22:16:03;;;;;;;;;;;;;;;;;;10500929;28;19924;-60
2022/12/11 22:21:05;;;;;;;;;;;;;;;;;;10501156;28;19954;-60
2022/12/11 22:26:07;;;;;;;;;;;;;;;;;;10499066;28;19999;-61
2022/12/11 22:31:10;;;;;;;;;;;;;;;;;;10500708;28;19924;-60
2022/12/11 22:36:12;;;;;;;;;;;;;;;;;;10499576;28;20007;-61
2022/12/11 22:41:16;;;;;;;;;;;;;;;;;;10499673;28;21559;-60
2022/12/11 22:46:23;;;;;;;;;;;;;;;;;;10498463;28;19924;-60
2022/12/11 22:51:25;;;;;;;;;;;;;;;;;;10499040;28;19930;-61
2022/12/11 22:56:27;;;;;;;;;;;;;;;;;;10498405;28;19932;-60
2022/12/11 23:01:29;;;;;;;;;;;;;;;;;;10499050;28;20291;-60
2022/12/11 23:06:31;;;;;;;;;;;;;;;;;;10497575;28;19925;-61
2022/12/11 23:11:33;;;;;;;;;;;;;;;;;;10499380;28;19924;-61
2022/12/11 23:16:35;;;;;;;;;;;;;;;;;;10498111;28;19936;-61
2022/12/11 23:21:37;;;;;;;;;;;;;;;;;;10499259;28;19932;-61
2022/12/11 23:26:40;;;;;;;;;;;;;;;;;;10498808;28;19924;-60
2022/12/11 23:31:42;;;;;;;;;;;;;;;;;;10497308;28;19924;-61
2022/12/11 23:36:44;;;;;;;;;;;;;;;;;;10497869;28;19928;-61
2022/12/11 23:41:46;;;;;;;;;;;;;;;;;;10498019;28;20033;-60
2022/12/11 23:46:48;;;;;;;;;;;;;;;;;;10457098;28;19932;-61
2022/12/11 23:51:50;;;;;;;;;;;;;;;;;;10456336;28;19929;-60
2022/12/11 23:56:53;;;;;;;;;;;;;;;;;;10498022;28;19955;-60
